createdAt,value
2022-11-15T00:02:09.457Z,11.10
2022-11-15T00:05:14.503Z,11.10
2022-11-15T00:08:19.068Z,11.10
2022-11-15T00:11:23.435Z,11.20
2022-11-15T00:14:27.828Z,11.00
2022-11-15T00:17:33.569Z,11.00
2022-11-15T00:20:38.485Z,11.10
2022-11-15T00:23:43.052Z,11.20
2022-11-15T00:26:47.453Z,11.30
2022-11-15T00:29:51.913Z,11.40
2022-11-15T00:32:57.682Z,11.30
2022-11-15T00:36:03.241Z,11.40
2022-11-15T00:39:07.824Z,11.50
2022-11-15T00:42:12.466Z,11.40
2022-11-15T00:45:17.148Z,11.20
2022-11-15T00:48:22.911Z,11.20
2022-11-15T00:51:27.273Z,11.30
2022-11-15T00:54:31.600Z,11.30
2022-11-15T00:57:36.049Z,11.30
2022-11-15T01:00:40.991Z,11.50
2022-11-15T01:03:47.056Z,11.50
2022-11-15T01:06:52.149Z,11.70
2022-11-15T01:09:56.519Z,11.70
2022-11-15T01:13:00.953Z,11.60
2022-11-15T01:16:10.001Z,11.70
2022-11-15T01:19:16.380Z,11.80
2022-11-15T01:22:21.288Z,11.80
2022-11-15T01:25:26.196Z,12.00
2022-11-15T01:28:32.397Z,12.20
2022-11-15T01:31:36.908Z,12.30
2022-11-15T01:34:43.085Z,12.20
2022-11-15T01:37:47.727Z,12.20
2022-11-15T01:40:52.947Z,12.30
2022-11-15T01:43:59.311Z,12.30
2022-11-15T01:47:08.257Z,12.30
2022-11-15T01:50:18.614Z,12.40
2022-11-15T01:53:25.871Z,12.50
2022-11-15T01:56:33.888Z,12.50
2022-11-15T01:59:41.630Z,12.50
2022-11-15T02:02:49.754Z,12.60
2022-11-15T02:05:56.393Z,12.70
2022-11-15T02:09:02.390Z,12.80
2022-11-15T02:12:09.435Z,12.80
2022-11-15T02:15:14.873Z,12.90
2022-11-15T02:18:27.647Z,13.00
2022-11-15T02:21:42.365Z,13.10
2022-11-15T02:25:09.827Z,12.80
2022-11-15T02:28:38.773Z,12.80
2022-11-15T02:31:50.299Z,12.90
2022-11-15T02:35:02.548Z,13.00
2022-11-15T02:38:13.773Z,13.20
2022-11-15T02:41:24.908Z,13.10
2022-11-15T02:44:35.709Z,13.30
2022-11-15T02:47:46.759Z,13.10
2022-11-15T02:50:52.410Z,13.10
2022-11-15T02:53:57.758Z,13.20
2022-11-15T02:57:05.319Z,13.30
2022-11-15T03:00:11.855Z,13.30
2022-11-15T03:03:38.650Z,13.20
2022-11-15T03:06:49.725Z,13.40
2022-11-15T03:10:01.137Z,13.50
2022-11-15T03:13:15.491Z,13.50
2022-11-15T03:16:24.652Z,13.40
2022-11-15T03:19:35.393Z,13.50
2022-11-15T03:22:44.273Z,13.30
2022-11-15T03:25:51.582Z,13.30
2022-11-15T03:29:00.443Z,13.70
2022-11-15T03:32:08.846Z,13.60
2022-11-15T03:35:18.056Z,13.60
2022-11-15T03:38:26.009Z,13.30
2022-11-15T03:41:38.638Z,13.60
2022-11-15T03:44:48.932Z,13.80
2022-11-15T03:48:00.407Z,14.00
2022-11-15T03:51:06.500Z,13.90
2022-11-15T03:54:13.825Z,13.80
2022-11-15T03:57:18.271Z,13.90
2022-11-15T04:00:22.760Z,14.10
2022-11-15T04:03:27.391Z,14.20
2022-11-15T04:06:33.420Z,14.10
2022-11-15T04:09:56.815Z,14.20
2022-11-15T04:13:03.690Z,14.40
2022-11-15T04:16:08.100Z,14.20
2022-11-15T04:19:31.305Z,14.10
2022-11-15T04:22:55.917Z,14.20
2022-11-15T04:26:02.766Z,14.20
2022-11-15T04:29:26.138Z,14.10
2022-11-15T04:32:31.072Z,14.30
2022-11-15T04:35:36.337Z,14.40
2022-11-15T04:38:42.417Z,14.50
2022-11-15T04:41:47.237Z,14.40
2022-11-15T04:44:51.976Z,14.30
2022-11-15T04:47:56.750Z,14.20
2022-11-15T04:51:01.463Z,14.40
2022-11-15T04:54:07.817Z,14.40
2022-11-15T04:59:40.678Z,14.70
2022-11-15T05:03:04.264Z,14.70
2022-11-15T05:06:08.842Z,14.60
2022-11-15T05:09:14.803Z,14.30
2022-11-15T05:12:19.387Z,14.40
2022-11-15T05:15:25.357Z,14.20
2022-11-15T05:18:30.030Z,14.40
2022-11-15T05:21:35.279Z,14.40
2022-11-15T05:24:39.923Z,14.40
2022-11-15T05:27:44.202Z,14.20
2022-11-15T05:30:50.148Z,14.00
2022-11-15T05:33:56.359Z,14.10
2022-11-15T05:37:00.781Z,14.20
2022-11-15T05:40:06.628Z,14.40
2022-11-15T05:43:11.780Z,14.40
2022-11-15T05:46:18.932Z,14.40
2022-11-15T05:49:27.887Z,14.50
2022-11-15T05:52:36.687Z,14.50
2022-11-15T05:55:42.015Z,14.60
2022-11-15T05:58:46.467Z,14.60
2022-11-15T06:01:52.174Z,14.70
2022-11-15T06:04:56.450Z,14.90
2022-11-15T06:08:01.411Z,14.80
2022-11-15T06:11:06.875Z,15.00
2022-11-15T06:14:11.699Z,14.90
2022-11-15T06:17:17.570Z,15.00
2022-11-15T06:20:22.078Z,14.90
2022-11-15T06:23:26.476Z,14.70
2022-11-15T06:26:30.756Z,14.90
2022-11-15T06:29:35.261Z,15.00
2022-11-15T06:32:41.402Z,15.10
2022-11-15T06:35:46.066Z,15.10
2022-11-15T06:38:50.761Z,15.10
2022-11-15T06:41:55.222Z,15.40
2022-11-15T06:44:59.620Z,15.10
2022-11-15T06:48:06.784Z,15.20
2022-11-15T06:51:11.291Z,15.30
2022-11-15T06:54:15.685Z,15.60
2022-11-15T06:57:19.909Z,15.50
2022-11-15T07:00:24.552Z,15.70
2022-11-15T07:03:31.902Z,15.50
2022-11-15T07:06:36.441Z,15.40
2022-11-15T07:09:41.576Z,15.40
2022-11-15T07:12:48.283Z,15.30
2022-11-15T07:15:53.139Z,15.50
2022-11-15T07:18:58.908Z,15.60
2022-11-15T07:22:03.421Z,15.40
2022-11-15T07:25:08.916Z,15.30
2022-11-15T07:28:13.587Z,15.30
2022-11-15T07:31:18.156Z,15.40
2022-11-15T07:34:24.704Z,15.30
2022-11-15T07:37:29.383Z,15.20
2022-11-15T07:40:34.046Z,15.20
2022-11-15T07:43:38.691Z,15.40
2022-11-15T07:46:43.074Z,15.50
2022-11-15T07:49:49.545Z,15.50
2022-11-15T07:53:00.273Z,15.60
2022-11-15T07:56:07.394Z,15.70
2022-11-15T07:59:12.153Z,15.90
2022-11-15T08:02:18.796Z,15.90
2022-11-15T08:05:24.634Z,15.80
2022-11-15T08:08:29.795Z,15.60
2022-11-15T08:11:34.925Z,15.70
2022-11-15T08:14:39.507Z,15.70
2022-11-15T08:17:44.119Z,15.80
2022-11-15T08:20:49.867Z,15.90
2022-11-15T08:23:55.318Z,16.10
2022-11-15T08:26:59.716Z,16.20
2022-11-15T08:30:05.859Z,16.40
2022-11-15T08:33:13.593Z,16.30
2022-11-15T08:36:19.848Z,16.40
2022-11-15T08:39:24.342Z,16.60
2022-11-15T08:42:29.186Z,16.60
2022-11-15T08:45:36.077Z,16.70
2022-11-15T08:48:40.781Z,16.70
2022-11-15T08:51:46.597Z,16.80
2022-11-15T08:54:51.585Z,16.30
2022-11-15T08:57:58.713Z,16.10
2022-11-15T09:01:04.257Z,15.80
2022-11-15T09:04:08.911Z,16.00
2022-11-15T09:07:15.439Z,15.90
2022-11-15T09:10:21.743Z,15.50
2022-11-15T09:13:26.248Z,15.60
2022-11-15T09:16:32.384Z,15.70
2022-11-15T09:19:37.920Z,15.70
2022-11-15T09:22:43.741Z,15.60
2022-11-15T09:25:48.711Z,15.70
2022-11-15T09:28:53.275Z,15.70
2022-11-15T09:31:57.946Z,15.60
2022-11-15T09:35:02.351Z,15.30
2022-11-15T09:38:08.073Z,15.50
2022-11-15T09:41:41.206Z,15.60
2022-11-15T09:45:00.576Z,16.00
2022-11-15T09:48:22.061Z,16.50
2022-11-15T09:51:31.774Z,16.70
2022-11-15T09:54:52.860Z,17.30
2022-11-15T09:57:45.551Z,17.20
2022-11-15T10:00:52.877Z,17.30
2022-11-15T10:03:43.033Z,17.20
2022-11-15T10:06:28.854Z,17.30
2022-11-15T10:09:23.853Z,17.20
2022-11-15T10:12:14.380Z,16.50
2022-11-15T10:15:03.905Z,16.60
2022-11-15T10:18:08.394Z,16.80
2022-11-15T10:20:59.376Z,16.80
2022-11-15T10:23:45.236Z,17.40
2022-11-15T10:26:31.228Z,17.80
2022-11-15T10:29:27.142Z,17.70
2022-11-15T10:32:18.365Z,17.90
2022-11-15T10:35:18.521Z,17.90
2022-11-15T10:38:07.304Z,17.60
2022-11-15T10:41:08.035Z,17.20
2022-11-15T10:44:09.898Z,17.60
2022-11-15T10:47:25.292Z,17.90
2022-11-15T10:50:28.088Z,17.80
2022-11-15T10:53:20.916Z,18.30
2022-11-15T10:56:09.934Z,18.70
2022-11-15T10:58:57.961Z,18.50
2022-11-15T11:01:48.081Z,18.70
2022-11-15T11:04:50.438Z,18.60
2022-11-15T11:07:37.927Z,17.70
2022-11-15T11:10:49.627Z,17.60
2022-11-15T11:13:31.229Z,17.90
2022-11-15T11:16:41.917Z,18.50
2022-11-15T11:19:45.918Z,18.60
2022-11-15T11:22:37.169Z,18.90
2022-11-15T11:25:31.080Z,19.90
2022-11-15T11:28:30.637Z,19.90
2022-11-15T11:31:26.386Z,19.80
2022-11-15T11:34:20.696Z,20.00
2022-11-15T11:37:13.622Z,19.50
2022-11-15T11:40:14.514Z,19.40
2022-11-15T11:43:10.375Z,19.50
2022-11-15T11:46:14.467Z,19.50
2022-11-15T11:49:08.980Z,19.20
2022-11-15T11:51:59.921Z,19.00
2022-11-15T11:55:12.038Z,18.70
2022-11-15T11:58:06.261Z,19.30
2022-11-15T12:00:56.227Z,19.30
2022-11-15T12:03:47.130Z,19.60
2022-11-15T12:06:38.519Z,19.80
2022-11-15T12:09:32.050Z,19.50
2022-11-15T12:12:26.044Z,19.40
2022-11-15T12:15:16.900Z,19.40
2022-11-15T12:18:02.800Z,19.20
2022-11-15T12:20:55.328Z,19.00
2022-11-15T12:23:45.965Z,18.50
2022-11-15T12:26:36.576Z,18.20
2022-11-15T12:29:32.048Z,18.00
2022-11-15T12:32:26.688Z,17.30
2022-11-15T12:35:25.235Z,17.00
2022-11-15T12:38:12.189Z,16.90
2022-11-15T12:41:16.795Z,17.40
2022-11-15T12:44:03.095Z,17.60
2022-11-15T12:47:23.385Z,17.90
2022-11-15T12:50:17.649Z,18.10
2022-11-15T12:53:28.970Z,18.40
2022-11-15T12:56:25.001Z,18.60
2022-11-15T12:59:10.422Z,17.80
2022-11-15T13:02:00.857Z,17.30
2022-11-15T13:04:47.980Z,17.00
2022-11-15T13:07:58.257Z,16.80
2022-11-15T13:10:43.699Z,17.00
2022-11-15T13:13:45.628Z,16.70
2022-11-15T13:19:04.199Z,16.40
2022-11-15T13:22:09.125Z,15.70
2022-11-15T13:24:56.042Z,15.60
2022-11-15T13:27:41.957Z,15.60
2022-11-15T13:30:31.133Z,15.80
2022-11-15T13:33:19.514Z,15.70
2022-11-15T13:36:09.967Z,15.70
2022-11-15T13:38:59.008Z,15.70
2022-11-15T13:41:49.317Z,15.70
2022-11-15T13:44:34.987Z,15.50
2022-11-15T13:47:21.004Z,15.50
2022-11-15T13:50:12.094Z,15.60
2022-11-15T13:53:02.155Z,15.60
2022-11-15T13:57:19.945Z,15.40
2022-11-15T14:00:08.022Z,15.10
2022-11-15T14:03:17.419Z,15.40
2022-11-15T14:06:04.818Z,15.20
2022-11-15T14:09:09.560Z,15.20
2022-11-15T14:11:57.410Z,15.10
2022-11-15T14:14:47.765Z,15.10
2022-11-15T14:17:38.597Z,15.00
2022-11-15T14:20:31.746Z,15.10
2022-11-15T14:23:25.155Z,14.90
2022-11-15T14:26:40.611Z,14.90
2022-11-15T14:29:27.648Z,15.10
2022-11-15T14:32:16.959Z,15.10
2022-11-15T14:35:05.029Z,14.70
2022-11-15T14:37:51.079Z,15.20
2022-11-15T14:40:36.670Z,15.40
2022-11-15T14:49:17.294Z,15.40
2022-11-15T14:54:30.321Z,15.20
2022-11-15T14:57:16.253Z,15.00
2022-11-15T15:00:01.542Z,15.10
2022-11-15T15:02:58.260Z,15.10
2022-11-15T15:05:44.827Z,15.30
2022-11-15T15:08:30.916Z,15.50
2022-11-15T15:11:26.145Z,15.50
2022-11-15T15:14:12.624Z,15.60
2022-11-15T15:16:57.948Z,15.50
2022-11-15T15:19:43.754Z,15.50
2022-11-15T15:22:31.419Z,15.40
2022-11-15T15:25:23.661Z,15.40
2022-11-15T15:28:10.882Z,15.30
2022-11-15T15:30:56.900Z,15.10
2022-11-15T15:33:43.203Z,15.10
2022-11-15T15:36:28.766Z,14.90
2022-11-15T15:39:14.426Z,14.60
2022-11-15T15:41:59.940Z,14.80
2022-11-15T15:44:47.550Z,14.60
2022-11-15T15:47:33.148Z,14.60
2022-11-15T15:50:22.079Z,14.70
2022-11-15T15:53:09.120Z,14.80
2022-11-15T15:55:54.679Z,14.90
2022-11-15T15:58:40.563Z,14.80
2022-11-15T16:01:28.024Z,14.80
2022-11-15T16:04:13.928Z,14.70
2022-11-15T16:07:00.274Z,14.90
2022-11-15T16:10:00.981Z,14.90
2022-11-15T16:12:47.424Z,14.80
2022-11-15T16:15:33.866Z,14.80
2022-11-15T16:18:21.023Z,14.80
2022-11-15T16:21:06.657Z,14.70
2022-11-15T16:23:52.128Z,14.80
2022-11-15T16:26:38.538Z,14.60
2022-11-15T16:29:24.572Z,14.70
2022-11-15T16:32:10.748Z,14.60
2022-11-15T16:34:59.209Z,14.70
2022-11-15T16:37:47.086Z,15.00
2022-11-15T16:40:34.721Z,15.10
2022-11-15T16:43:20.670Z,15.00
2022-11-15T16:46:13.719Z,15.20
2022-11-15T16:48:59.503Z,15.00
2022-11-15T16:51:47.949Z,14.90
2022-11-15T16:54:33.990Z,14.90
2022-11-15T16:57:19.877Z,14.70
2022-11-15T17:00:06.609Z,14.90
2022-11-15T17:02:53.147Z,15.10
2022-11-15T17:05:39.036Z,15.00
2022-11-15T17:08:26.312Z,15.00
2022-11-15T17:11:15.342Z,15.10
2022-11-15T17:14:01.742Z,15.30
2022-11-15T17:17:30.541Z,15.20
2022-11-15T17:20:17.203Z,14.60
2022-11-15T17:23:03.375Z,14.60
2022-11-15T17:26:03.896Z,14.40
2022-11-15T17:28:57.887Z,14.40
2022-11-15T17:31:44.565Z,14.40
2022-11-15T17:34:31.278Z,14.50
2022-11-15T17:37:17.530Z,14.50
2022-11-15T17:40:03.490Z,14.50
2022-11-15T17:42:48.843Z,14.20
2022-11-15T17:45:35.216Z,13.90
2022-11-15T17:48:20.733Z,13.80
2022-11-15T17:51:10.425Z,13.90
2022-11-15T17:53:56.552Z,14.00
2022-11-15T17:56:42.770Z,14.20
2022-11-15T17:59:28.419Z,14.00
2022-11-15T18:02:14.153Z,13.90
2022-11-15T18:05:00.218Z,14.10
2022-11-15T18:07:47.455Z,14.00
2022-11-15T18:10:33.056Z,14.20
2022-11-15T18:13:18.568Z,14.10
2022-11-15T18:16:04.939Z,14.10
2022-11-15T18:18:50.731Z,14.20
2022-11-15T18:21:56.220Z,14.10
2022-11-15T18:24:44.908Z,13.90
2022-11-15T18:27:30.395Z,13.90
2022-11-15T18:30:16.606Z,13.80
2022-11-15T18:33:02.306Z,13.70
2022-11-15T18:35:48.585Z,13.70
2022-11-15T18:38:34.408Z,13.50
2022-11-15T18:41:25.269Z,13.50
2022-11-15T18:44:11.043Z,13.50
2022-11-15T18:46:57.146Z,13.60
2022-11-15T18:49:42.840Z,13.60
2022-11-15T18:52:28.352Z,13.70
2022-11-15T18:55:14.572Z,13.50
2022-11-15T18:58:01.818Z,13.70
2022-11-15T19:00:47.763Z,13.70
2022-11-15T19:03:35.338Z,13.60
2022-11-15T19:06:23.345Z,13.50
2022-11-15T19:09:09.893Z,13.60
2022-11-15T19:11:55.583Z,13.50
2022-11-15T19:14:43.110Z,13.30
2022-11-15T19:17:28.798Z,13.30
2022-11-15T19:20:15.029Z,13.60
2022-11-15T19:23:04.314Z,13.60
2022-11-15T19:25:58.165Z,13.60
2022-11-15T19:28:44.195Z,13.40
2022-11-15T19:31:31.949Z,13.40
2022-11-15T19:34:18.127Z,13.30
2022-11-15T19:37:05.375Z,13.40
2022-11-15T19:39:50.709Z,13.20
2022-11-15T19:42:36.648Z,13.40
2022-11-15T19:45:22.400Z,13.70
2022-11-15T19:48:09.622Z,13.70
2022-11-15T19:50:55.417Z,13.60
2022-11-15T19:53:42.416Z,13.70
2022-11-15T19:56:28.145Z,13.70
2022-11-15T19:59:14.266Z,13.50
2022-11-15T20:01:59.613Z,13.30
2022-11-15T20:04:46.512Z,13.50
2022-11-15T20:07:32.090Z,13.60
2022-11-15T20:10:20.743Z,13.50
2022-11-15T20:13:06.493Z,13.60
2022-11-15T20:15:52.647Z,13.70
2022-11-15T20:18:38.437Z,13.70
2022-11-15T20:21:25.459Z,13.70
2022-11-15T20:24:11.125Z,13.70
2022-11-15T20:26:57.115Z,13.50
2022-11-15T20:29:45.069Z,13.70
2022-11-15T20:32:31.845Z,13.60
2022-11-15T20:35:17.761Z,13.70
2022-11-15T20:38:06.273Z,13.70
2022-11-15T20:40:57.489Z,13.80
2022-11-15T20:43:45.536Z,13.70
2022-11-15T20:46:31.618Z,13.60
2022-11-15T20:49:17.247Z,13.60
2022-11-15T20:52:03.069Z,13.70
2022-11-15T20:54:50.086Z,13.60
2022-11-15T20:57:35.743Z,13.80
2022-11-15T21:00:24.939Z,13.70
2022-11-15T21:03:11.429Z,13.70
2022-11-15T21:05:57.069Z,13.70
2022-11-15T21:09:01.320Z,13.70
2022-11-15T21:12:10.245Z,13.70
2022-11-15T21:14:55.932Z,13.80
2022-11-15T21:17:41.650Z,13.50
2022-11-15T21:20:28.250Z,13.60
2022-11-15T21:23:14.101Z,13.70
2022-11-15T21:25:59.809Z,13.70
2022-11-15T21:28:57.489Z,13.80
2022-11-15T21:31:43.607Z,13.90
2022-11-15T21:34:29.264Z,14.10
2022-11-15T21:37:15.205Z,13.80
2022-11-15T21:40:04.818Z,13.70
2022-11-15T21:43:03.943Z,13.70
2022-11-15T21:45:59.138Z,13.60
2022-11-15T21:48:44.715Z,13.80
2022-11-15T21:51:31.476Z,13.80
2022-11-15T21:54:18.084Z,13.80
2022-11-15T21:57:04.077Z,13.90
2022-11-15T22:00:08.856Z,13.80
2022-11-15T22:02:58.936Z,13.80
2022-11-15T22:05:45.293Z,14.10
2022-11-15T22:08:32.042Z,14.20
2022-11-15T22:11:22.276Z,14.10
2022-11-15T22:14:13.132Z,14.10
2022-11-15T22:17:01.775Z,14.10
2022-11-15T22:19:52.904Z,14.10
2022-11-15T22:22:42.219Z,14.00
2022-11-15T22:25:28.235Z,14.00
2022-11-15T22:28:14.140Z,14.20
2022-11-15T22:31:06.100Z,14.10
2022-11-15T22:33:51.936Z,13.90
2022-11-15T22:37:13.197Z,13.70
2022-11-15T22:39:51.637Z,13.90
2022-11-15T22:42:40.436Z,13.80
2022-11-15T22:45:26.348Z,13.70
2022-11-15T22:48:16.067Z,13.80
2022-11-15T22:51:02.848Z,14.00
2022-11-15T22:53:51.536Z,14.00
2022-11-15T22:56:37.639Z,13.90
2022-11-15T22:59:29.317Z,14.00
2022-11-15T23:02:21.576Z,13.90
2022-11-15T23:05:10.485Z,14.10
2022-11-15T23:07:59.194Z,14.10
2022-11-15T23:11:05.872Z,14.20
2022-11-15T23:13:52.639Z,13.90
2022-11-15T23:16:40.024Z,13.90
2022-11-15T23:19:26.166Z,14.00
2022-11-15T23:22:30.734Z,13.80
2022-11-15T23:25:17.067Z,13.80
2022-11-15T23:28:06.091Z,13.60
2022-11-15T23:31:10.544Z,13.70
2022-11-15T23:33:58.887Z,13.70
2022-11-15T23:36:44.777Z,13.80
2022-11-15T23:39:30.786Z,13.90
2022-11-15T23:42:19.743Z,13.80
2022-11-15T23:45:08.079Z,13.80
2022-11-15T23:47:58.395Z,14.00
2022-11-15T23:50:48.163Z,14.10
2022-11-15T23:53:34.205Z,14.20
2022-11-15T23:56:21.042Z,14.10
2022-11-15T23:59:06.836Z,14.00
